sensor_id;sensor_type;location;lat;lon;timestamp;pressure;altitude;pressure_sealevel;temperature;humidity
13407;BME280;6774;48.208;10.766;2023-02-01T00:00:43;96150.25;;;3.29;82.82
13407;BME280;6774;48.208;10.766;2023-02-01T00:03:11;96144.44;;;3.57;81.78
13407;BME280;6774;48.208;10.766;2023-02-01T00:05:41;96145.25;;;3.37;82.44
13407;BME280;6774;48.208;10.766;2023-02-01T00:08:08;96139.78;;;3.40;82.49
13407;BME280;6774;48.208;10.766;2023-02-01T00:10:37;96131.44;;;3.46;82.43
13407;BME280;6774;48.208;10.766;2023-02-01T00:13:05;96131.38;;;3.57;82.39
13407;BME280;6774;48.208;10.766;2023-02-01T00:15:33;96132.81;;;3.71;81.29
13407;BME280;6774;48.208;10.766;2023-02-01T00:18:01;96132.00;;;3.70;81.86
13407;BME280;6774;48.208;10.766;2023-02-01T00:20:28;96136.38;;;3.70;81.87
13407;BME280;6774;48.208;10.766;2023-02-01T00:22:56;96139.38;;;3.65;81.55
13407;BME280;6774;48.208;10.766;2023-02-01T00:25:24;96131.13;;;3.60;81.94
13407;BME280;6774;48.208;10.766;2023-02-01T00:27:53;96124.94;;;3.61;82.83
13407;BME280;6774;48.208;10.766;2023-02-01T00:30:23;96129.69;;;3.56;82.98
13407;BME280;6774;48.208;10.766;2023-02-01T00:32:50;96127.81;;;3.58;83.11
13407;BME280;6774;48.208;10.766;2023-02-01T00:35:18;96120.16;;;3.66;82.75
13407;BME280;6774;48.208;10.766;2023-02-01T00:37:46;96119.25;;;3.56;83.15
13407;BME280;6774;48.208;10.766;2023-02-01T00:40:14;96117.19;;;3.50;84.37
13407;BME280;6774;48.208;10.766;2023-02-01T00:42:42;96125.78;;;3.41;84.68
13407;BME280;6774;48.208;10.766;2023-02-01T00:45:11;96125.47;;;3.34;85.14
13407;BME280;6774;48.208;10.766;2023-02-01T00:47:39;96129.69;;;3.56;84.06
13407;BME280;6774;48.208;10.766;2023-02-01T00:50:07;96121.22;;;3.64;83.66
13407;BME280;6774;48.208;10.766;2023-02-01T00:52:35;96125.03;;;3.50;84.53
13407;BME280;6774;48.208;10.766;2023-02-01T00:55:03;96123.00;;;3.63;83.86
13407;BME280;6774;48.208;10.766;2023-02-01T00:57:31;96125.03;;;3.50;84.71
13407;BME280;6774;48.208;10.766;2023-02-01T01:00:01;96108.41;;;3.51;84.47
13407;BME280;6774;48.208;10.766;2023-02-01T01:02:31;96109.38;;;3.50;84.23
13407;BME280;6774;48.208;10.766;2023-02-01T01:04:59;96107.91;;;3.57;84.27
13407;BME280;6774;48.208;10.766;2023-02-01T01:07:27;96111.28;;;3.48;84.96
13407;BME280;6774;48.208;10.766;2023-02-01T01:09:55;96098.25;;;3.48;84.84
13407;BME280;6774;48.208;10.766;2023-02-01T01:12:23;96101.91;;;3.46;85.11
13407;BME280;6774;48.208;10.766;2023-02-01T01:14:51;96100.78;;;3.38;85.10
13407;BME280;6774;48.208;10.766;2023-02-01T01:17:19;96104.22;;;3.39;85.41
13407;BME280;6774;48.208;10.766;2023-02-01T01:19:48;96097.47;;;3.36;85.40
13407;BME280;6774;48.208;10.766;2023-02-01T01:22:16;96090.94;;;3.21;85.88
13407;BME280;6774;48.208;10.766;2023-02-01T01:24:44;96093.59;;;3.31;85.58
13407;BME280;6774;48.208;10.766;2023-02-01T01:27:12;96102.38;;;3.09;85.84
13407;BME280;6774;48.208;10.766;2023-02-01T01:29:40;96091.44;;;3.15;85.95
13407;BME280;6774;48.208;10.766;2023-02-01T01:32:08;96101.38;;;3.21;85.77
13407;BME280;6774;48.208;10.766;2023-02-01T01:34:37;96095.34;;;3.21;85.49
13407;BME280;6774;48.208;10.766;2023-02-01T01:37:06;96097.19;;;3.30;85.27
13407;BME280;6774;48.208;10.766;2023-02-01T01:39:34;96091.31;;;3.17;86.23
13407;BME280;6774;48.208;10.766;2023-02-01T01:42:02;96090.28;;;3.29;86.02
13407;BME280;6774;48.208;10.766;2023-02-01T01:44:59;96083.41;;;3.28;85.40
13407;BME280;6774;48.208;10.766;2023-02-01T01:47:34;96073.25;;;3.25;85.66
13407;BME280;6774;48.208;10.766;2023-02-01T01:50:07;96071.09;;;3.30;85.15
13407;BME280;6774;48.208;10.766;2023-02-01T01:52:39;96059.53;;;3.23;85.49
13407;BME280;6774;48.208;10.766;2023-02-01T01:55:09;96062.63;;;3.17;85.00
13407;BME280;6774;48.208;10.766;2023-02-01T01:57:39;96048.16;;;3.03;85.88
13407;BME280;6774;48.208;10.766;2023-02-01T02:00:09;96057.00;;;3.11;85.82
13407;BME280;6774;48.208;10.766;2023-02-01T02:02:44;96050.16;;;2.99;85.77
13407;BME280;6774;48.208;10.766;2023-02-01T02:05:13;96050.31;;;2.98;86.61
13407;BME280;6774;48.208;10.766;2023-02-01T02:07:46;96052.78;;;2.99;87.12
13407;BME280;6774;48.208;10.766;2023-02-01T02:10:16;96050.25;;;2.88;87.38
13407;BME280;6774;48.208;10.766;2023-02-01T02:12:46;96056.41;;;2.87;87.51
13407;BME280;6774;48.208;10.766;2023-02-01T02:15:16;96050.75;;;2.82;86.76
13407;BME280;6774;48.208;10.766;2023-02-01T02:17:52;96058.00;;;2.99;87.26
13407;BME280;6774;48.208;10.766;2023-02-01T02:20:52;96046.34;;;2.82;86.73
13407;BME280;6774;48.208;10.766;2023-02-01T02:23:53;96059.59;;;3.11;86.34
13407;BME280;6774;48.208;10.766;2023-02-01T02:26:35;96061.94;;;3.14;86.19
13407;BME280;6774;48.208;10.766;2023-02-01T02:29:42;96063.31;;;3.19;85.60
13407;BME280;6774;48.208;10.766;2023-02-01T02:32:47;96056.72;;;3.14;85.54
13407;BME280;6774;48.208;10.766;2023-02-01T02:35:26;96069.06;;;3.12;85.47
13407;BME280;6774;48.208;10.766;2023-02-01T02:38:05;96067.91;;;3.26;84.83
13407;BME280;6774;48.208;10.766;2023-02-01T02:40:42;96062.81;;;3.25;85.14
13407;BME280;6774;48.208;10.766;2023-02-01T02:43:20;96059.31;;;3.14;84.99
13407;BME280;6774;48.208;10.766;2023-02-01T02:46:14;96052.31;;;3.15;84.83
13407;BME280;6774;48.208;10.766;2023-02-01T02:49:04;96055.13;;;3.23;85.19
13407;BME280;6774;48.208;10.766;2023-02-01T02:51:38;96056.44;;;3.18;84.99
13407;BME280;6774;48.208;10.766;2023-02-01T02:54:28;96048.13;;;3.24;84.80
13407;BME280;6774;48.208;10.766;2023-02-01T02:57:19;96059.75;;;3.20;84.96
13407;BME280;6774;48.208;10.766;2023-02-01T03:00:09;96059.16;;;3.37;84.74
13407;BME280;6774;48.208;10.766;2023-02-01T03:02:55;96049.69;;;3.36;84.64
13407;BME280;6774;48.208;10.766;2023-02-01T03:05:43;96050.28;;;3.19;84.12
13407;BME280;6774;48.208;10.766;2023-02-01T03:08:15;96043.88;;;3.23;84.91
13407;BME280;6774;48.208;10.766;2023-02-01T03:10:48;96044.56;;;3.25;84.89
13407;BME280;6774;48.208;10.766;2023-02-01T03:13:25;96053.72;;;3.19;84.94
13407;BME280;6774;48.208;10.766;2023-02-01T03:15:58;96055.31;;;3.10;84.94
13407;BME280;6774;48.208;10.766;2023-02-01T03:18:32;96035.91;;;3.24;84.46
13407;BME280;6774;48.208;10.766;2023-02-01T03:21:06;96048.00;;;3.25;84.66
13407;BME280;6774;48.208;10.766;2023-02-01T03:23:36;96035.41;;;3.30;84.23
13407;BME280;6774;48.208;10.766;2023-02-01T03:26:08;96032.34;;;3.25;84.12
13407;BME280;6774;48.208;10.766;2023-02-01T03:28:43;96036.56;;;3.17;83.82
13407;BME280;6774;48.208;10.766;2023-02-01T03:31:13;96023.00;;;3.23;84.22
13407;BME280;6774;48.208;10.766;2023-02-01T03:33:41;96029.69;;;3.46;83.65
13407;BME280;6774;48.208;10.766;2023-02-01T03:36:15;96035.19;;;3.43;83.54
13407;BME280;6774;48.208;10.766;2023-02-01T03:38:51;96035.66;;;3.58;82.83
13407;BME280;6774;48.208;10.766;2023-02-01T03:41:27;96038.47;;;3.45;82.96
13407;BME280;6774;48.208;10.766;2023-02-01T03:44:00;96031.34;;;3.47;82.63
13407;BME280;6774;48.208;10.766;2023-02-01T03:46:32;96035.44;;;3.40;82.86
13407;BME280;6774;48.208;10.766;2023-02-01T03:49:05;96023.31;;;3.29;83.58
13407;BME280;6774;48.208;10.766;2023-02-01T03:51:36;96021.84;;;3.46;82.58
13407;BME280;6774;48.208;10.766;2023-02-01T03:54:12;96019.69;;;3.51;82.13
13407;BME280;6774;48.208;10.766;2023-02-01T03:56:43;96028.06;;;3.55;82.16
13407;BME280;6774;48.208;10.766;2023-02-01T03:59:13;96031.69;;;3.63;82.13
13407;BME280;6774;48.208;10.766;2023-02-01T04:01:41;96042.38;;;3.60;82.29
13407;BME280;6774;48.208;10.766;2023-02-01T04:04:09;96037.50;;;3.77;81.29
13407;BME280;6774;48.208;10.766;2023-02-01T04:06:50;96043.34;;;3.59;82.01
13407;BME280;6774;48.208;10.766;2023-02-01T04:09:21;96049.25;;;3.61;81.85
13407;BME280;6774;48.208;10.766;2023-02-01T04:11:49;96060.75;;;3.49;82.73
13407;BME280;6774;48.208;10.766;2023-02-01T04:14:16;96046.56;;;3.42;82.55
13407;BME280;6774;48.208;10.766;2023-02-01T04:16:44;96039.16;;;3.47;82.59
13407;BME280;6774;48.208;10.766;2023-02-01T04:19:12;96038.28;;;3.58;82.31
13407;BME280;6774;48.208;10.766;2023-02-01T04:21:41;96040.94;;;3.77;81.51
13407;BME280;6774;48.208;10.766;2023-02-01T04:24:09;96042.81;;;3.65;81.46
13407;BME280;6774;48.208;10.766;2023-02-01T04:26:38;96048.28;;;3.62;82.21
13407;BME280;6774;48.208;10.766;2023-02-01T04:29:08;96057.31;;;3.28;82.81
13407;BME280;6774;48.208;10.766;2023-02-01T04:31:36;96046.16;;;3.47;82.62
13407;BME280;6774;48.208;10.766;2023-02-01T04:34:04;96052.00;;;3.60;82.06
13407;BME280;6774;48.208;10.766;2023-02-01T04:36:32;96051.00;;;3.51;82.86
13407;BME280;6774;48.208;10.766;2023-02-01T04:39:00;96038.69;;;3.32;82.13
13407;BME280;6774;48.208;10.766;2023-02-01T04:41:28;96046.72;;;3.40;82.47
13407;BME280;6774;48.208;10.766;2023-02-01T04:43:58;96043.69;;;3.45;82.59
13407;BME280;6774;48.208;10.766;2023-02-01T04:46:26;96016.78;;;3.45;82.45
13407;BME280;6774;48.208;10.766;2023-02-01T04:48:54;96022.47;;;3.29;82.77
13407;BME280;6774;48.208;10.766;2023-02-01T04:51:22;96034.53;;;3.51;82.46
13407;BME280;6774;48.208;10.766;2023-02-01T04:53:50;96042.25;;;3.62;82.00
13407;BME280;6774;48.208;10.766;2023-02-01T04:56:18;96032.19;;;3.48;81.98
13407;BME280;6774;48.208;10.766;2023-02-01T04:58:46;96046.56;;;3.11;83.11
13407;BME280;6774;48.208;10.766;2023-02-01T05:01:15;96048.81;;;3.26;83.34
13407;BME280;6774;48.208;10.766;2023-02-01T05:03:43;96054.34;;;3.32;83.25
13407;BME280;6774;48.208;10.766;2023-02-01T05:06:11;96042.41;;;3.09;83.65
13407;BME280;6774;48.208;10.766;2023-02-01T05:08:38;96039.84;;;3.39;83.28
13407;BME280;6774;48.208;10.766;2023-02-01T05:11:06;96054.91;;;3.36;83.15
13407;BME280;6774;48.208;10.766;2023-02-01T05:13:54;96053.66;;;3.09;83.87
13407;BME280;6774;48.208;10.766;2023-02-01T05:16:23;96045.59;;;3.12;83.48
13407;BME280;6774;48.208;10.766;2023-02-01T05:18:50;96036.81;;;3.44;83.18
13407;BME280;6774;48.208;10.766;2023-02-01T05:21:18;96042.03;;;3.44;82.86
13407;BME280;6774;48.208;10.766;2023-02-01T05:23:46;96039.13;;;3.37;83.36
13407;BME280;6774;48.208;10.766;2023-02-01T05:26:32;96031.88;;;3.41;82.84
13407;BME280;6774;48.208;10.766;2023-02-01T05:29:01;96023.00;;;3.23;83.59
13407;BME280;6774;48.208;10.766;2023-02-01T05:31:30;96047.53;;;3.41;83.68
13407;BME280;6774;48.208;10.766;2023-02-01T05:33:58;96040.38;;;3.43;83.48
13407;BME280;6774;48.208;10.766;2023-02-01T05:36:26;96035.41;;;3.30;84.80
13407;BME280;6774;48.208;10.766;2023-02-01T05:38:54;96045.50;;;3.24;85.54
13407;BME280;6774;48.208;10.766;2023-02-01T05:41:22;96034.97;;;3.04;86.44
13407;BME280;6774;48.208;10.766;2023-02-01T05:43:50;96040.19;;;3.04;86.53
13407;BME280;6774;48.208;10.766;2023-02-01T05:46:19;96037.59;;;3.04;85.04
13407;BME280;6774;48.208;10.766;2023-02-01T05:48:48;96041.16;;;3.03;85.14
13407;BME280;6774;48.208;10.766;2023-02-01T05:51:16;96044.75;;;2.91;86.06
13407;BME280;6774;48.208;10.766;2023-02-01T05:53:43;96023.47;;;3.07;85.07
13407;BME280;6774;48.208;10.766;2023-02-01T05:56:11;96042.81;;;3.04;85.20
13407;BME280;6774;48.208;10.766;2023-02-01T05:58:39;96042.16;;;2.91;85.86
13407;BME280;6774;48.208;10.766;2023-02-01T06:01:07;96020.72;;;3.08;85.58
13407;BME280;6774;48.208;10.766;2023-02-01T06:03:36;96028.22;;;3.23;84.52
13407;BME280;6774;48.208;10.766;2023-02-01T06:06:05;96028.72;;;3.17;84.27
13407;BME280;6774;48.208;10.766;2023-02-01T06:08:33;96040.13;;;3.16;84.06
13407;BME280;6774;48.208;10.766;2023-02-01T06:11:02;96027.53;;;3.51;83.05
13407;BME280;6774;48.208;10.766;2023-02-01T06:13:31;96034.13;;;3.25;83.87
13407;BME280;6774;48.208;10.766;2023-02-01T06:16:01;96041.09;;;3.45;83.36
13407;BME280;6774;48.208;10.766;2023-02-01T06:18:30;96040.38;;;3.43;83.04
13407;BME280;6774;48.208;10.766;2023-02-01T06:20:58;96022.56;;;3.48;83.40
13407;BME280;6774;48.208;10.766;2023-02-01T06:23:28;96019.25;;;3.46;83.09
13407;BME280;6774;48.208;10.766;2023-02-01T06:26:02;96014.31;;;3.43;83.09
13407;BME280;6774;48.208;10.766;2023-02-01T06:28:31;96008.53;;;3.39;83.21
13407;BME280;6774;48.208;10.766;2023-02-01T06:31:03;96017.00;;;3.32;83.92
13407;BME280;6774;48.208;10.766;2023-02-01T06:33:34;96012.00;;;3.19;83.73
13407;BME280;6774;48.208;10.766;2023-02-01T06:36:04;96027.69;;;3.29;83.50
13407;BME280;6774;48.208;10.766;2023-02-01T06:38:35;96031.59;;;3.44;82.83
13407;BME280;6774;48.208;10.766;2023-02-01T06:41:03;96033.00;;;3.48;82.98
13407;BME280;6774;48.208;10.766;2023-02-01T06:43:31;96016.19;;;3.31;83.43
13407;BME280;6774;48.208;10.766;2023-02-01T06:46:01;96025.88;;;3.50;82.77
13407;BME280;6774;48.208;10.766;2023-02-01T06:48:29;96016.53;;;3.48;82.54
13407;BME280;6774;48.208;10.766;2023-02-01T06:50:57;96020.47;;;3.42;82.37
13407;BME280;6774;48.208;10.766;2023-02-01T06:53:26;96015.94;;;3.44;82.98
13407;BME280;6774;48.208;10.766;2023-02-01T06:55:56;96006.78;;;3.50;82.86
13407;BME280;6774;48.208;10.766;2023-02-01T06:58:24;96013.03;;;3.37;82.17
13407;BME280;6774;48.208;10.766;2023-02-01T07:00:55;96019.56;;;3.53;82.32
13407;BME280;6774;48.208;10.766;2023-02-01T07:03:23;96015.78;;;3.66;81.86
13407;BME280;6774;48.208;10.766;2023-02-01T07:05:55;96013.03;;;3.68;81.21
13407;BME280;6774;48.208;10.766;2023-02-01T07:08:23;96023.13;;;3.52;81.05
13407;BME280;6774;48.208;10.766;2023-02-01T07:10:50;96024.50;;;3.56;81.46
13407;BME280;6774;48.208;10.766;2023-02-01T07:13:19;96035.16;;;3.74;81.20
13407;BME280;6774;48.208;10.766;2023-02-01T07:15:47;96019.66;;;3.82;80.94
13407;BME280;6774;48.208;10.766;2023-02-01T07:18:15;96024.59;;;3.75;81.13
13407;BME280;6774;48.208;10.766;2023-02-01T07:20:43;96028.69;;;3.68;81.61
13407;BME280;6774;48.208;10.766;2023-02-01T07:23:17;96011.94;;;3.70;81.08
13407;BME280;6774;48.208;10.766;2023-02-01T07:25:45;96012.94;;;3.89;80.76
13407;BME280;6774;48.208;10.766;2023-02-01T07:28:13;96027.31;;;3.74;80.65
13407;BME280;6774;48.208;10.766;2023-02-01T07:30:42;96023.78;;;3.84;80.02
13407;BME280;6774;48.208;10.766;2023-02-01T07:33:10;96011.97;;;3.90;80.02
13407;BME280;6774;48.208;10.766;2023-02-01T07:35:38;96020.50;;;3.92;80.01
13407;BME280;6774;48.208;10.766;2023-02-01T07:38:06;96014.69;;;3.79;79.83
13407;BME280;6774;48.208;10.766;2023-02-01T07:40:33;96024.31;;;3.78;79.44
13407;BME280;6774;48.208;10.766;2023-02-01T07:43:01;96023.00;;;4.03;79.55
13407;BME280;6774;48.208;10.766;2023-02-01T07:45:32;96036.34;;;4.10;79.62
13407;BME280;6774;48.208;10.766;2023-02-01T07:48:04;96032.91;;;4.09;79.13
13407;BME280;6774;48.208;10.766;2023-02-01T07:50:31;96036.19;;;4.11;79.11
13407;BME280;6774;48.208;10.766;2023-02-01T07:52:59;96029.34;;;4.29;78.47
13407;BME280;6774;48.208;10.766;2023-02-01T07:55:28;96023.03;;;4.22;78.78
13407;BME280;6774;48.208;10.766;2023-02-01T07:57:57;96034.84;;;4.17;78.64
13407;BME280;6774;48.208;10.766;2023-02-01T08:00:26;96043.09;;;4.12;79.38
13407;BME280;6774;48.208;10.766;2023-02-01T08:03:13;96050.22;;;4.10;78.96
13407;BME280;6774;48.208;10.766;2023-02-01T08:05:42;95992.69;;;3.71;78.98
13407;BME280;6774;48.208;10.766;2023-02-01T08:08:10;96075.44;;;3.81;79.24
13407;BME280;6774;48.208;10.766;2023-02-01T08:10:38;96052.66;;;3.92;78.96
13407;BME280;6774;48.208;10.766;2023-02-01T08:13:06;96049.38;;;4.00;78.08
13407;BME280;6774;48.208;10.766;2023-02-01T08:15:34;96063.28;;;4.10;79.12
13407;BME280;6774;48.208;10.766;2023-02-01T08:18:04;96067.53;;;4.11;78.42
13407;BME280;6774;48.208;10.766;2023-02-01T08:20:33;96057.38;;;4.18;77.86
13407;BME280;6774;48.208;10.766;2023-02-01T08:23:02;96064.22;;;3.99;77.39
13407;BME280;6774;48.208;10.766;2023-02-01T08:25:30;96074.16;;;4.15;77.82
13407;BME280;6774;48.208;10.766;2023-02-01T08:27:58;96069.56;;;3.98;78.21
13407;BME280;6774;48.208;10.766;2023-02-01T08:30:26;96052.41;;;4.05;78.28
13407;BME280;6774;48.208;10.766;2023-02-01T08:32:54;96067.06;;;3.87;78.57
13407;BME280;6774;48.208;10.766;2023-02-01T08:35:22;96053.53;;;4.12;78.84
13407;BME280;6774;48.208;10.766;2023-02-01T08:38:09;96064.97;;;4.21;77.47
13407;BME280;6774;48.208;10.766;2023-02-01T08:40:37;96061.38;;;4.12;78.17
13407;BME280;6774;48.208;10.766;2023-02-01T08:43:05;96047.75;;;4.18;78.17
13407;BME280;6774;48.208;10.766;2023-02-01T08:45:33;96080.72;;;4.00;78.12
13407;BME280;6774;48.208;10.766;2023-02-01T08:48:01;96028.28;;;4.32;77.62
13407;BME280;6774;48.208;10.766;2023-02-01T08:50:29;96054.41;;;4.42;77.19
13407;BME280;6774;48.208;10.766;2023-02-01T08:52:57;96026.88;;;4.28;76.87
13407;BME280;6774;48.208;10.766;2023-02-01T08:55:26;96035.97;;;4.53;77.27
13407;BME280;6774;48.208;10.766;2023-02-01T08:57:54;96042.81;;;4.15;77.82
13407;BME280;6774;48.208;10.766;2023-02-01T09:00:22;96048.75;;;4.37;77.10
13407;BME280;6774;48.208;10.766;2023-02-01T09:02:50;96021.94;;;4.54;77.17
13407;BME280;6774;48.208;10.766;2023-02-01T09:05:18;96055.38;;;4.50;77.01
13407;BME280;6774;48.208;10.766;2023-02-01T09:07:48;96042.31;;;4.41;77.57
13407;BME280;6774;48.208;10.766;2023-02-01T09:10:16;96047.53;;;4.60;77.40
13407;BME280;6774;48.208;10.766;2023-02-01T09:13:01;96050.28;;;4.59;76.85
13407;BME280;6774;48.208;10.766;2023-02-01T09:15:29;96059.34;;;4.64;76.64
13407;BME280;6774;48.208;10.766;2023-02-01T09:17:57;96047.53;;;4.60;76.47
13407;BME280;6774;48.208;10.766;2023-02-01T09:20:25;96052.91;;;4.49;77.92
13407;BME280;6774;48.208;10.766;2023-02-01T09:22:54;96050.84;;;4.62;77.50
13407;BME280;6774;48.208;10.766;2023-02-01T09:25:22;96052.63;;;4.62;76.65
13407;BME280;6774;48.208;10.766;2023-02-01T09:27:50;96068.16;;;4.82;76.52
13407;BME280;6774;48.208;10.766;2023-02-01T09:30:20;96077.78;;;4.72;76.64
13407;BME280;6774;48.208;10.766;2023-02-01T09:32:48;96060.88;;;4.76;76.30
13407;BME280;6774;48.208;10.766;2023-02-01T09:35:16;96056.88;;;4.92;76.85
13407;BME280;6774;48.208;10.766;2023-02-01T09:37:43;96060.16;;;4.94;76.41
13407;BME280;6774;48.208;10.766;2023-02-01T09:40:13;96054.38;;;5.00;76.43
13407;BME280;6774;48.208;10.766;2023-02-01T09:43:00;96060.44;;;5.10;76.35
13407;BME280;6774;48.208;10.766;2023-02-01T09:45:40;96046.97;;;4.95;76.83
13407;BME280;6774;48.208;10.766;2023-02-01T09:48:15;96049.97;;;5.10;75.00
13407;BME280;6774;48.208;10.766;2023-02-01T09:50:47;96064.00;;;5.09;76.52
13407;BME280;6774;48.208;10.766;2023-02-01T09:53:21;96053.03;;;4.76;76.78
13407;BME280;6774;48.208;10.766;2023-02-01T09:55:53;96058.53;;;4.54;77.47
13407;BME280;6774;48.208;10.766;2023-02-01T09:58:26;96065.25;;;4.66;77.86
13407;BME280;6774;48.208;10.766;2023-02-01T10:00:58;96057.69;;;5.02;76.79
13407;BME280;6774;48.208;10.766;2023-02-01T10:03:29;96078.34;;;5.14;75.82
13407;BME280;6774;48.208;10.766;2023-02-01T10:06:07;96060.03;;;5.14;77.04
13407;BME280;6774;48.208;10.766;2023-02-01T10:08:55;96071.59;;;4.83;77.27
13407;BME280;6774;48.208;10.766;2023-02-01T10:11:32;96067.47;;;4.90;76.62
13407;BME280;6774;48.208;10.766;2023-02-01T10:14:29;96072.31;;;4.95;76.53
13407;BME280;6774;48.208;10.766;2023-02-01T10:17:12;96072.84;;;4.69;77.64
13407;BME280;6774;48.208;10.766;2023-02-01T10:19:51;96091.84;;;4.91;77.55
13407;BME280;6774;48.208;10.766;2023-02-01T10:22:33;96100.66;;;4.90;76.36
13407;BME280;6774;48.208;10.766;2023-02-01T10:25:27;96095.41;;;5.09;76.21
13407;BME280;6774;48.208;10.766;2023-02-01T10:27:56;96088.81;;;4.85;77.41
13407;BME280;6774;48.208;10.766;2023-02-01T10:30:30;96100.50;;;4.81;77.09
13407;BME280;6774;48.208;10.766;2023-02-01T10:33:16;96080.00;;;5.06;76.42
13407;BME280;6774;48.208;10.766;2023-02-01T10:35:45;96093.44;;;4.34;78.30
13407;BME280;6774;48.208;10.766;2023-02-01T10:38:20;96102.28;;;4.71;76.98
13407;BME280;6774;48.208;10.766;2023-02-01T10:40:52;96100.63;;;5.09;76.60
13407;BME280;6774;48.208;10.766;2023-02-01T10:43:21;96100.50;;;5.01;78.10
13407;BME280;6774;48.208;10.766;2023-02-01T10:45:48;96104.22;;;4.69;77.84
13407;BME280;6774;48.208;10.766;2023-02-01T10:48:18;96114.38;;;4.53;78.02
13407;BME280;6774;48.208;10.766;2023-02-01T10:50:49;96096.53;;;4.87;76.90
13407;BME280;6774;48.208;10.766;2023-02-01T10:53:22;96099.28;;;4.85;77.13
13407;BME280;6774;48.208;10.766;2023-02-01T10:55:52;96120.44;;;4.63;77.22
13407;BME280;6774;48.208;10.766;2023-02-01T10:58:26;96125.38;;;4.47;78.81
13407;BME280;6774;48.208;10.766;2023-02-01T11:00:57;96119.06;;;4.49;78.12
13407;BME280;6774;48.208;10.766;2023-02-01T11:03:33;96157.03;;;4.53;77.84
13407;BME280;6774;48.208;10.766;2023-02-01T11:06:03;96106.34;;;4.25;79.26
13407;BME280;6774;48.208;10.766;2023-02-01T11:08:42;96116.31;;;4.51;78.51
13407;BME280;6774;48.208;10.766;2023-02-01T11:11:11;96118.25;;;4.49;79.45
13407;BME280;6774;48.208;10.766;2023-02-01T11:13:40;96135.53;;;4.31;79.22
13407;BME280;6774;48.208;10.766;2023-02-01T11:16:12;96122.03;;;4.25;79.47
13407;BME280;6774;48.208;10.766;2023-02-01T11:18:42;96128.72;;;4.68;78.22
13407;BME280;6774;48.208;10.766;2023-02-01T11:21:10;96112.44;;;4.55;79.46
13407;BME280;6774;48.208;10.766;2023-02-01T11:23:41;96126.75;;;4.51;78.11
13407;BME280;6774;48.208;10.766;2023-02-01T11:26:12;96105.81;;;4.22;78.62
13407;BME280;6774;48.208;10.766;2023-02-01T11:28:53;96134.75;;;4.49;79.22
13407;BME280;6774;48.208;10.766;2023-02-01T11:31:22;96123.72;;;4.46;79.17
13407;BME280;6774;48.208;10.766;2023-02-01T11:33:55;96124.81;;;4.43;79.43
13407;BME280;6774;48.208;10.766;2023-02-01T11:36:27;96111.75;;;4.53;78.78
13407;BME280;6774;48.208;10.766;2023-02-01T11:39:09;96125.91;;;4.41;79.26
13407;BME280;6774;48.208;10.766;2023-02-01T11:41:41;96108.44;;;4.32;79.44
13407;BME280;6774;48.208;10.766;2023-02-01T11:44:20;96108.72;;;3.88;80.39
13407;BME280;6774;48.208;10.766;2023-02-01T11:46:48;96094.00;;;4.37;79.37
13407;BME280;6774;48.208;10.766;2023-02-01T11:49:23;96094.28;;;4.44;78.85
13407;BME280;6774;48.208;10.766;2023-02-01T11:52:09;96092.75;;;4.32;77.93
13407;BME280;6774;48.208;10.766;2023-02-01T11:54:50;96104.75;;;4.44;78.00
13407;BME280;6774;48.208;10.766;2023-02-01T11:57:33;96090.84;;;4.43;78.01
13407;BME280;6774;48.208;10.766;2023-02-01T12:00:26;96078.59;;;4.34;77.03
13407;BME280;6774;48.208;10.766;2023-02-01T12:03:11;96076.13;;;4.42;77.77
13407;BME280;6774;48.208;10.766;2023-02-01T12:05:53;96077.50;;;4.56;77.50
13407;BME280;6774;48.208;10.766;2023-02-01T12:08:37;96076.66;;;4.36;77.77
13407;BME280;6774;48.208;10.766;2023-02-01T12:11:24;96062.09;;;4.53;76.17
13407;BME280;6774;48.208;10.766;2023-02-01T12:14:01;96054.00;;;4.85;75.87
13407;BME280;6774;48.208;10.766;2023-02-01T12:16:37;96064.31;;;4.87;75.46
13407;BME280;6774;48.208;10.766;2023-02-01T12:19:39;96057.16;;;4.79;74.91
13407;BME280;6774;48.208;10.766;2023-02-01T12:22:33;96047.09;;;4.36;76.70
13407;BME280;6774;48.208;10.766;2023-02-01T12:25:25;96064.03;;;4.61;76.34
13407;BME280;6774;48.208;10.766;2023-02-01T12:28:16;96053.84;;;4.48;77.14
13407;BME280;6774;48.208;10.766;2023-02-01T12:31:14;96046.72;;;4.40;77.87
13407;BME280;6774;48.208;10.766;2023-02-01T12:33:53;96048.91;;;4.45;77.56
13407;BME280;6774;48.208;10.766;2023-02-01T12:36:32;96039.41;;;4.63;76.70
13407;BME280;6774;48.208;10.766;2023-02-01T12:39:16;96036.25;;;4.69;77.58
13407;BME280;6774;48.208;10.766;2023-02-01T12:41:52;96039.84;;;4.49;77.18
13407;BME280;6774;48.208;10.766;2023-02-01T12:44:30;96025.81;;;4.31;79.05
13407;BME280;6774;48.208;10.766;2023-02-01T12:47:03;96025.25;;;4.56;79.01
13407;BME280;6774;48.208;10.766;2023-02-01T12:49:45;96035.53;;;4.19;79.77
13407;BME280;6774;48.208;10.766;2023-02-01T12:52:21;96028.28;;;4.42;79.67
13407;BME280;6774;48.208;10.766;2023-02-01T12:54:55;96021.41;;;4.50;79.07
13407;BME280;6774;48.208;10.766;2023-02-01T12:57:28;96027.16;;;4.25;79.72
13407;BME280;6774;48.208;10.766;2023-02-01T13:00:07;96030.75;;;4.53;78.62
13407;BME280;6774;48.208;10.766;2023-02-01T13:02:43;96025.53;;;4.53;78.79
13407;BME280;6774;48.208;10.766;2023-02-01T13:05:16;96018.88;;;4.20;80.17
13407;BME280;6774;48.208;10.766;2023-02-01T13:07:49;96025.31;;;3.96;80.81
13407;BME280;6774;48.208;10.766;2023-02-01T13:10:24;96001.03;;;4.54;79.76
13407;BME280;6774;48.208;10.766;2023-02-01T13:13:04;96007.09;;;4.54;78.40
13407;BME280;6774;48.208;10.766;2023-02-01T13:15:40;96019.47;;;4.52;78.64
13407;BME280;6774;48.208;10.766;2023-02-01T13:18:13;96004.91;;;4.50;77.80
13407;BME280;6774;48.208;10.766;2023-02-01T13:20:47;96009.16;;;4.41;78.47
13407;BME280;6774;48.208;10.766;2023-02-01T13:23:22;96010.81;;;4.33;79.92
13407;BME280;6774;48.208;10.766;2023-02-01T13:25:54;96008.47;;;4.39;79.17
13407;BME280;6774;48.208;10.766;2023-02-01T13:28:26;96006.25;;;4.54;78.87
13407;BME280;6774;48.208;10.766;2023-02-01T13:31:12;95997.31;;;4.47;79.12
13407;BME280;6774;48.208;10.766;2023-02-01T13:33:55;96001.84;;;4.64;77.95
13407;BME280;6774;48.208;10.766;2023-02-01T13:36:38;96013.13;;;4.65;78.49
13407;BME280;6774;48.208;10.766;2023-02-01T13:39:25;96008.06;;;4.24;78.90